sensor_id;sensor_type;location;lat;lon;timestamp;pressure;altitude;pressure_sealevel;temperature;humidity
30081;BME280;16902;50.816;12.828;2023-08-07T00:00:42;96707.94;;;12.93;100.00
30081;BME280;16902;50.816;12.828;2023-08-07T00:05:46;96706.00;;;12.89;100.00
30081;BME280;16902;50.816;12.828;2023-08-07T00:10:48;96705.44;;;12.86;100.00
30081;BME280;16902;50.816;12.828;2023-08-07T00:15:49;96703.03;;;12.85;100.00
30081;BME280;16902;50.816;12.828;2023-08-07T00:20:51;96702.22;;;12.84;100.00
30081;BME280;16902;50.816;12.828;2023-08-07T00:25:53;96698.59;;;12.85;100.00
30081;BME280;16902;50.816;12.828;2023-08-07T00:30:56;96699.84;;;12.83;100.00
30081;BME280;16902;50.816;12.828;2023-08-07T00:35:58;96700.06;;;12.81;100.00
30081;BME280;16902;50.816;12.828;2023-08-07T00:40:59;96698.69;;;12.79;100.00
30081;BME280;16902;50.816;12.828;2023-08-07T00:46:02;96709.69;;;12.81;100.00
30081;BME280;16902;50.816;12.828;2023-08-07T00:51:04;96701.06;;;12.80;100.00
30081;BME280;16902;50.816;12.828;2023-08-07T00:56:06;96703.25;;;12.83;100.00
30081;BME280;16902;50.816;12.828;2023-08-07T01:01:09;96709.91;;;12.79;100.00
30081;BME280;16902;50.816;12.828;2023-08-07T01:06:11;96702.47;;;12.83;100.00
30081;BME280;16902;50.816;12.828;2023-08-07T01:11:24;96703.03;;;12.85;100.00
30081;BME280;16902;50.816;12.828;2023-08-07T01:16:40;96708.69;;;12.82;100.00
30081;BME280;16902;50.816;12.828;2023-08-07T01:21:47;96695.03;;;12.80;100.00
30081;BME280;16902;50.816;12.828;2023-08-07T01:26:50;96706.50;;;12.79;100.00
30081;BME280;16902;50.816;12.828;2023-08-07T01:31:54;96703.91;;;12.79;100.00
30081;BME280;16902;50.816;12.828;2023-08-07T01:36:59;96707.75;;;12.76;100.00
30081;BME280;16902;50.816;12.828;2023-08-07T01:42:03;96708.41;;;12.72;100.00
30081;BME280;16902;50.816;12.828;2023-08-07T01:47:06;96719.66;;;12.72;100.00
30081;BME280;16902;50.816;12.828;2023-08-07T01:52:08;96707.75;;;12.76;100.00
30081;BME280;16902;50.816;12.828;2023-08-07T01:57:10;96721.41;;;12.78;100.00
30081;BME280;16902;50.816;12.828;2023-08-07T02:02:12;96720.22;;;12.74;100.00
30081;BME280;16902;50.816;12.828;2023-08-07T02:07:14;96718.94;;;12.65;100.00
30081;BME280;16902;50.816;12.828;2023-08-07T02:12:15;96721.16;;;12.61;100.00
30081;BME280;16902;50.816;12.828;2023-08-07T02:17:19;96719.16;;;12.64;100.00
30081;BME280;16902;50.816;12.828;2023-08-07T02:22:21;96718.34;;;12.63;100.00
30081;BME280;16902;50.816;12.828;2023-08-07T02:27:23;96732.63;;;12.60;100.00
30081;BME280;16902;50.816;12.828;2023-08-07T02:32:25;96737.13;;;12.53;100.00
30081;BME280;16902;50.816;12.828;2023-08-07T02:37:28;96742.50;;;12.58;100.00
30081;BME280;16902;50.816;12.828;2023-08-07T02:42:30;96747.50;;;12.60;100.00
30081;BME280;16902;50.816;12.828;2023-08-07T02:47:31;96744.53;;;12.56;100.00
30081;BME280;16902;50.816;12.828;2023-08-07T02:52:33;96747.28;;;12.61;100.00
30081;BME280;16902;50.816;12.828;2023-08-07T02:57:35;96765.56;;;12.61;100.00
30081;BME280;16902;50.816;12.828;2023-08-07T03:02:36;96757.38;;;12.58;100.00
30081;BME280;16902;50.816;12.828;2023-08-07T03:07:38;96754.97;;;12.56;100.00
30081;BME280;16902;50.816;12.828;2023-08-07T03:12:40;96757.16;;;12.59;100.00
30081;BME280;16902;50.816;12.828;2023-08-07T03:17:42;96760.84;;;12.52;100.00
30081;BME280;16902;50.816;12.828;2023-08-07T03:22:44;96760.84;;;12.52;100.00
30081;BME280;16902;50.816;12.828;2023-08-07T03:27:45;96771.66;;;12.55;100.00
30081;BME280;16902;50.816;12.828;2023-08-07T03:32:47;96776.72;;;12.50;100.00
30081;BME280;16902;50.816;12.828;2023-08-07T03:37:49;96777.09;;;12.54;100.00
30081;BME280;16902;50.816;12.828;2023-08-07T03:42:51;96795.38;;;12.54;100.00
30081;BME280;16902;50.816;12.828;2023-08-07T03:47:53;96792.75;;;12.54;100.00
30081;BME280;16902;50.816;12.828;2023-08-07T03:52:55;96798.38;;;12.57;100.00
30081;BME280;16902;50.816;12.828;2023-08-07T03:57:57;96800.16;;;12.57;100.00
30081;BME280;16902;50.816;12.828;2023-08-07T04:03:00;96809.78;;;12.56;100.00
30081;BME280;16902;50.816;12.828;2023-08-07T04:08:01;96810.16;;;12.60;100.00
30081;BME280;16902;50.816;12.828;2023-08-07T04:13:03;96821.56;;;12.66;100.00
30081;BME280;16902;50.816;12.828;2023-08-07T04:18:05;96822.59;;;12.65;100.00
30081;BME280;16902;50.816;12.828;2023-08-07T04:23:07;96831.16;;;12.72;100.00
30081;BME280;16902;50.816;12.828;2023-08-07T04:28:10;96831.06;;;12.60;100.00
30081;BME280;16902;50.816;12.828;2023-08-07T04:33:12;96842.09;;;12.62;100.00
30081;BME280;16902;50.816;12.828;2023-08-07T04:38:15;96854.94;;;12.64;100.00
30081;BME280;16902;50.816;12.828;2023-08-07T04:43:17;96861.09;;;12.69;100.00
30081;BME280;16902;50.816;12.828;2023-08-07T04:48:21;96857.47;;;12.70;100.00
30081;BME280;16902;50.816;12.828;2023-08-07T04:53:26;96869.38;;;12.66;100.00
30081;BME280;16902;50.816;12.828;2023-08-07T04:58:28;96872.56;;;12.68;100.00
30081;BME280;16902;50.816;12.828;2023-08-07T05:03:29;96885.81;;;12.67;100.00
30081;BME280;16902;50.816;12.828;2023-08-07T05:08:32;96871.72;;;12.74;100.00
30081;BME280;16902;50.816;12.828;2023-08-07T05:13:34;96870.03;;;12.80;100.00
30081;BME280;16902;50.816;12.828;2023-08-07T05:18:36;96876.81;;;12.88;100.00
30081;BME280;16902;50.816;12.828;2023-08-07T05:23:37;96883.56;;;12.95;100.00
30081;BME280;16902;50.816;12.828;2023-08-07T05:28:39;96884.09;;;13.04;100.00
30081;BME280;16902;50.816;12.828;2023-08-07T05:33:41;96889.03;;;13.12;100.00
30081;BME280;16902;50.816;12.828;2023-08-07T05:38:43;96894.16;;;13.00;100.00
30081;BME280;16902;50.816;12.828;2023-08-07T05:43:45;96909.56;;;13.08;100.00
30081;BME280;16902;50.816;12.828;2023-08-07T05:48:47;96904.19;;;13.03;100.00
30081;BME280;16902;50.816;12.828;2023-08-07T05:53:49;96910.09;;;13.17;100.00
30081;BME280;16902;50.816;12.828;2023-08-07T05:58:50;96908.91;;;13.13;100.00
30081;BME280;16902;50.816;12.828;2023-08-07T06:03:52;96925.44;;;13.32;100.00
30081;BME280;16902;50.816;12.828;2023-08-07T06:08:54;96939.09;;;13.34;100.00
30081;BME280;16902;50.816;12.828;2023-08-07T06:13:59;96938.47;;;13.13;100.00
30081;BME280;16902;50.816;12.828;2023-08-07T06:19:01;96945.66;;;13.18;100.00
30081;BME280;16902;50.816;12.828;2023-08-07T06:24:02;96960.13;;;12.96;100.00
30081;BME280;16902;50.816;12.828;2023-08-07T06:29:04;96954.53;;;12.92;100.00
30081;BME280;16902;50.816;12.828;2023-08-07T06:34:06;96967.31;;;13.00;100.00
30081;BME280;16902;50.816;12.828;2023-08-07T06:39:08;96974.66;;;13.10;100.00
30081;BME280;16902;50.816;12.828;2023-08-07T06:44:10;96976.97;;;13.00;100.00
30081;BME280;16902;50.816;12.828;2023-08-07T06:49:12;96977.28;;;13.10;100.00
30081;BME280;16902;50.816;12.828;2023-08-07T06:54:14;96972.19;;;13.22;100.00
30081;BME280;16902;50.816;12.828;2023-08-07T06:59:15;96985.50;;;13.13;100.00
30081;BME280;16902;50.816;12.828;2023-08-07T07:04:17;96994.81;;;13.34;100.00
30081;BME280;16902;50.816;12.828;2023-08-07T07:09:19;97007.81;;;13.41;100.00
30081;BME280;16902;50.816;12.828;2023-08-07T07:14:21;97003.91;;;13.50;100.00
30081;BME280;16902;50.816;12.828;2023-08-07T07:19:24;97014.88;;;13.59;100.00
30081;BME280;16902;50.816;12.828;2023-08-07T07:24:26;97018.50;;;13.76;100.00
30081;BME280;16902;50.816;12.828;2023-08-07T07:29:28;97029.91;;;13.82;100.00
30081;BME280;16902;50.816;12.828;2023-08-07T07:34:30;97038.78;;;13.81;100.00
30081;BME280;16902;50.816;12.828;2023-08-07T07:39:34;97039.38;;;14.01;100.00
30081;BME280;16902;50.816;12.828;2023-08-07T07:44:36;97042.63;;;13.97;100.00
30081;BME280;16902;50.816;12.828;2023-08-07T07:49:38;97051.38;;;14.09;100.00
30081;BME280;16902;50.816;12.828;2023-08-07T07:54:40;97054.28;;;14.19;100.00
30081;BME280;16902;50.816;12.828;2023-08-07T07:59:42;97063.06;;;14.25;100.00
30081;BME280;16902;50.816;12.828;2023-08-07T08:04:44;97063.66;;;14.08;100.00
30081;BME280;16902;50.816;12.828;2023-08-07T08:09:46;97068.22;;;14.50;100.00
30081;BME280;16902;50.816;12.828;2023-08-07T08:14:48;97076.69;;;14.63;100.00
30081;BME280;16902;50.816;12.828;2023-08-07T08:19:57;97079.66;;;14.55;100.00
30081;BME280;16902;50.816;12.828;2023-08-07T08:24:59;97078.09;;;14.66;100.00
30081;BME280;16902;50.816;12.828;2023-08-07T08:30:02;97078.69;;;14.50;100.00
30081;BME280;16902;50.816;12.828;2023-08-07T08:35:05;97093.78;;;14.18;100.00
30081;BME280;16902;50.816;12.828;2023-08-07T08:40:10;97104.13;;;13.87;100.00
30081;BME280;16902;50.816;12.828;2023-08-07T08:45:18;97103.47;;;13.74;100.00
30081;BME280;16902;50.816;12.828;2023-08-07T08:50:22;97110.69;;;13.53;100.00
30081;BME280;16902;50.816;12.828;2023-08-07T08:55:25;97113.66;;;13.32;100.00
30081;BME280;16902;50.816;12.828;2023-08-07T09:00:28;97118.78;;;13.13;100.00
30081;BME280;16902;50.816;12.828;2023-08-07T09:05:32;97122.25;;;13.07;100.00
30081;BME280;16902;50.816;12.828;2023-08-07T09:10:35;97118.47;;;13.03;100.00
30081;BME280;16902;50.816;12.828;2023-08-07T09:15:38;97122.72;;;13.29;100.00
30081;BME280;16902;50.816;12.828;2023-08-07T09:20:42;97132.94;;;13.62;100.00
30081;BME280;16902;50.816;12.828;2023-08-07T09:25:44;97127.56;;;14.01;100.00
30081;BME280;16902;50.816;12.828;2023-08-07T09:30:46;97141.47;;;14.20;100.00
30081;BME280;16902;50.816;12.828;2023-08-07T09:35:49;97156.38;;;14.37;100.00
30081;BME280;16902;50.816;12.828;2023-08-07T09:40:51;97142.78;;;14.29;100.00
30081;BME280;16902;50.816;12.828;2023-08-07T09:46:02;97151.94;;;14.38;100.00
30081;BME280;16902;50.816;12.828;2023-08-07T09:51:04;97153.16;;;14.35;100.00
30081;BME280;16902;50.816;12.828;2023-08-07T09:56:06;97152.53;;;14.22;100.00
30081;BME280;16902;50.816;12.828;2023-08-07T10:01:09;97150.06;;;14.27;100.00
30081;BME280;16902;50.816;12.828;2023-08-07T10:06:11;97158.66;;;14.52;100.00
30081;BME280;16902;50.816;12.828;2023-08-07T10:11:14;97164.28;;;15.16;100.00
30081;BME280;16902;50.816;12.828;2023-08-07T10:16:19;97173.03;;;15.93;100.00
30081;BME280;16902;50.816;12.828;2023-08-07T10:21:22;97158.72;;;16.36;100.00
30081;BME280;16902;50.816;12.828;2023-08-07T10:26:25;97152.78;;;16.29;100.00
30081;BME280;16902;50.816;12.828;2023-08-07T10:31:29;97156.34;;;15.64;100.00
30081;BME280;16902;50.816;12.828;2023-08-07T10:36:36;97157.41;;;15.03;100.00
30081;BME280;16902;50.816;12.828;2023-08-07T10:41:44;97147.75;;;14.55;100.00
30081;BME280;16902;50.816;12.828;2023-08-07T10:51:55;97163.00;;;14.40;100.00
30081;BME280;16902;50.816;12.828;2023-08-07T10:56:59;97147.38;;;14.52;100.00
30081;BME280;16902;50.816;12.828;2023-08-07T11:02:01;97164.53;;;15.14;100.00
30081;BME280;16902;50.816;12.828;2023-08-07T11:07:03;97150.81;;;15.01;100.00
30081;BME280;16902;50.816;12.828;2023-08-07T11:12:05;97153.97;;;14.73;100.00
30081;BME280;16902;50.816;12.828;2023-08-07T11:17:07;97162.84;;;14.90;100.00
30081;BME280;16902;50.816;12.828;2023-08-07T11:22:09;97165.72;;;15.42;100.00
30081;BME280;16902;50.816;12.828;2023-08-07T11:27:11;97161.22;;;16.95;100.00
30081;BME280;16902;50.816;12.828;2023-08-07T11:32:14;97173.31;;;20.42;100.00
30081;BME280;16902;50.816;12.828;2023-08-07T11:37:16;97173.75;;;19.00;100.00
30081;BME280;16902;50.816;12.828;2023-08-07T11:42:21;97165.25;;;19.79;100.00
30081;BME280;16902;50.816;12.828;2023-08-07T11:47:23;97157.34;;;19.52;100.00
30081;BME280;16902;50.816;12.828;2023-08-07T11:52:25;97155.47;;;19.74;100.00
30081;BME280;16902;50.816;12.828;2023-08-07T11:57:27;97152.56;;;17.90;100.00
30081;BME280;16902;50.816;12.828;2023-08-07T12:02:29;97179.28;;;16.04;100.00
30081;BME280;16902;50.816;12.828;2023-08-07T12:07:31;97181.28;;;15.55;100.00
30081;BME280;16902;50.816;12.828;2023-08-07T12:12:37;97185.13;;;18.40;100.00
30081;BME280;16902;50.816;12.828;2023-08-07T12:17:39;97182.91;;;20.53;100.00
30081;BME280;16902;50.816;12.828;2023-08-07T12:22:41;97184.53;;;21.42;100.00
30081;BME280;16902;50.816;12.828;2023-08-07T12:27:45;97185.84;;;21.45;100.00
30081;BME280;16902;50.816;12.828;2023-08-07T12:32:49;97195.84;;;21.17;100.00
30081;BME280;16902;50.816;12.828;2023-08-07T12:37:51;97190.00;;;17.30;100.00
30081;BME280;16902;50.816;12.828;2023-08-07T12:42:53;97179.19;;;15.34;100.00
30081;BME280;16902;50.816;12.828;2023-08-07T12:47:55;97190.28;;;16.01;100.00
30081;BME280;16902;50.816;12.828;2023-08-07T12:52:57;97201.38;;;18.70;100.00
30081;BME280;16902;50.816;12.828;2023-08-07T12:58:00;97204.91;;;18.59;100.00
30081;BME280;16902;50.816;12.828;2023-08-07T13:03:02;97202.91;;;16.75;100.00
30081;BME280;16902;50.816;12.828;2023-08-07T13:08:04;97212.63;;;16.27;100.00
30081;BME280;16902;50.816;12.828;2023-08-07T13:13:06;97197.78;;;19.25;100.00
30081;BME280;16902;50.816;12.828;2023-08-07T13:18:08;97208.75;;;17.96;100.00
30081;BME280;16902;50.816;12.828;2023-08-07T13:23:10;97210.28;;;19.35;100.00
30081;BME280;16902;50.816;12.828;2023-08-07T13:28:13;97212.09;;;22.02;100.00
30081;BME280;16902;50.816;12.828;2023-08-07T13:33:15;97215.34;;;19.42;100.00
30081;BME280;16902;50.816;12.828;2023-08-07T13:38:17;97209.03;;;17.66;100.00
30081;BME280;16902;50.816;12.828;2023-08-07T13:43:20;97223.19;;;17.31;100.00
30081;BME280;16902;50.816;12.828;2023-08-07T13:48:22;97229.41;;;17.13;100.00
30081;BME280;16902;50.816;12.828;2023-08-07T13:53:28;97234.91;;;16.60;100.00
30081;BME280;16902;50.816;12.828;2023-08-07T13:58:30;97242.19;;;16.58;100.00
30081;BME280;16902;50.816;12.828;2023-08-07T14:03:32;97254.69;;;16.15;100.00
30081;BME280;16902;50.816;12.828;2023-08-07T14:08:34;97299.78;;;15.04;100.00
30081;BME280;16902;50.816;12.828;2023-08-07T14:13:36;97291.41;;;15.13;100.00
30081;BME280;16902;50.816;12.828;2023-08-07T14:18:38;97297.06;;;15.77;100.00
30081;BME280;16902;50.816;12.828;2023-08-07T14:23:41;97303.38;;;16.00;100.00
30081;BME280;16902;50.816;12.828;2023-08-07T14:28:44;97315.09;;;15.55;100.00
30081;BME280;16902;50.816;12.828;2023-08-07T14:33:46;97319.16;;;14.84;100.00
30081;BME280;16902;50.816;12.828;2023-08-07T14:38:48;97321.09;;;14.46;100.00
30081;BME280;16902;50.816;12.828;2023-08-07T14:43:50;97319.72;;;14.43;100.00
30081;BME280;16902;50.816;12.828;2023-08-07T14:48:52;97327.00;;;14.09;100.00
30081;BME280;16902;50.816;12.828;2023-08-07T14:53:54;97330.00;;;13.81;100.00
30081;BME280;16902;50.816;12.828;2023-08-07T14:58:56;97346.56;;;13.75;100.00
30081;BME280;16902;50.816;12.828;2023-08-07T15:03:58;97347.38;;;14.07;100.00
30081;BME280;16902;50.816;12.828;2023-08-07T15:09:00;97350.28;;;14.24;100.00
30081;BME280;16902;50.816;12.828;2023-08-07T15:14:02;97347.16;;;14.65;100.00
30081;BME280;16902;50.816;12.828;2023-08-07T15:19:06;97354.75;;;14.92;100.00
30081;BME280;16902;50.816;12.828;2023-08-07T15:24:08;97354.53;;;15.30;100.00
30081;BME280;16902;50.816;12.828;2023-08-07T15:29:09;97346.94;;;17.36;100.00
30081;BME280;16902;50.816;12.828;2023-08-07T15:34:11;97345.03;;;16.50;100.00
30081;BME280;16902;50.816;12.828;2023-08-07T15:39:13;97362.63;;;15.65;100.00
30081;BME280;16902;50.816;12.828;2023-08-07T15:44:15;97400.00;;;14.24;100.00
30081;BME280;16902;50.816;12.828;2023-08-07T15:49:17;97398.78;;;13.50;100.00
30081;BME280;16902;50.816;12.828;2023-08-07T15:54:20;97410.09;;;13.18;100.00
30081;BME280;16902;50.816;12.828;2023-08-07T15:59:24;97405.47;;;13.20;100.00
30081;BME280;16902;50.816;12.828;2023-08-07T16:04:28;97417.13;;;13.37;100.00
30081;BME280;16902;50.816;12.828;2023-08-07T16:09:30;97415.31;;;13.37;100.00
30081;BME280;16902;50.816;12.828;2023-08-07T16:14:33;97415.97;;;13.78;100.00
30081;BME280;16902;50.816;12.828;2023-08-07T16:19:39;97415.84;;;13.59;100.00
30081;BME280;16902;50.816;12.828;2023-08-07T16:24:41;97415.31;;;13.37;100.00
30081;BME280;16902;50.816;12.828;2023-08-07T16:29:43;97411.50;;;13.33;100.00
30081;BME280;16902;50.816;12.828;2023-08-07T16:34:45;97420.75;;;13.29;100.00
30081;BME280;16902;50.816;12.828;2023-08-07T16:39:47;97433.25;;;13.07;100.00
30081;BME280;16902;50.816;12.828;2023-08-07T16:44:49;97450.53;;;13.15;100.00
30081;BME280;16902;50.816;12.828;2023-08-07T16:49:51;97450.53;;;13.15;100.00
30081;BME280;16902;50.816;12.828;2023-08-07T16:54:53;97464.16;;;13.50;100.00
30081;BME280;16902;50.816;12.828;2023-08-07T16:59:56;97463.97;;;13.38;100.00
30081;BME280;16902;50.816;12.828;2023-08-07T17:04:57;97478.28;;;13.23;100.00
30081;BME280;16902;50.816;12.828;2023-08-07T17:09:59;97468.03;;;13.21;100.00
30081;BME280;16902;50.816;12.828;2023-08-07T17:15:01;97483.50;;;13.09;100.00
30081;BME280;16902;50.816;12.828;2023-08-07T17:20:04;97478.28;;;13.09;100.00
30081;BME280;16902;50.816;12.828;2023-08-07T17:25:06;97481.09;;;13.15;100.00
30081;BME280;16902;50.816;12.828;2023-08-07T17:30:08;97489.31;;;13.18;100.00
30081;BME280;16902;50.816;12.828;2023-08-07T17:35:09;97489.34;;;13.45;100.00
30081;BME280;16902;50.816;12.828;2023-08-07T17:40:11;97487.72;;;13.37;100.00
30081;BME280;16902;50.816;12.828;2023-08-07T17:45:13;97480.88;;;13.29;100.00
30081;BME280;16902;50.816;12.828;2023-08-07T17:50:16;97485.53;;;13.21;100.00
30081;BME280;16902;50.816;12.828;2023-08-07T17:55:18;97484.94;;;13.05;100.00
30081;BME280;16902;50.816;12.828;2023-08-07T18:00:20;97494.97;;;13.08;100.00
30081;BME280;16902;50.816;12.828;2023-08-07T18:05:22;97507.44;;;13.06;100.00
30081;BME280;16902;50.816;12.828;2023-08-07T18:10:25;97505.22;;;13.10;100.00
30081;BME280;16902;50.816;12.828;2023-08-07T18:15:26;97502.22;;;13.06;100.00
30081;BME280;16902;50.816;12.828;2023-08-07T18:20:28;97508.44;;;13.05;100.00
30081;BME280;16902;50.816;12.828;2023-08-07T18:25:30;97505.63;;;13.00;100.00
30081;BME280;16902;50.816;12.828;2023-08-07T18:30:31;97505.22;;;12.90;100.00
30081;BME280;16902;50.816;12.828;2023-08-07T18:35:33;97512.47;;;12.88;100.00
30081;BME280;16902;50.816;12.828;2023-08-07T18:40:35;97511.81;;;12.59;100.00
30081;BME280;16902;50.816;12.828;2023-08-07T18:45:39;97524.28;;;12.57;100.00
30081;BME280;16902;50.816;12.828;2023-08-07T18:50:41;97529.09;;;12.60;100.00
30081;BME280;16902;50.816;12.828;2023-08-07T18:55:42;97536.91;;;12.60;100.00
30081;BME280;16902;50.816;12.828;2023-08-07T19:00:44;97543.91;;;12.47;100.00
30081;BME280;16902;50.816;12.828;2023-08-07T19:05:46;97555.13;;;12.34;100.00
30081;BME280;16902;50.816;12.828;2023-08-07T19:10:48;97565.09;;;12.17;100.00
30081;BME280;16902;50.816;12.828;2023-08-07T19:15:49;97553.41;;;12.00;100.00
30081;BME280;16902;50.816;12.828;2023-08-07T19:20:52;97569.41;;;11.90;100.00
30081;BME280;16902;50.816;12.828;2023-08-07T19:25:53;97571.47;;;11.73;100.00
30081;BME280;16902;50.816;12.828;2023-08-07T19:30:55;97571.78;;;11.57;100.00
30081;BME280;16902;50.816;12.828;2023-08-07T19:36:06;97570.16;;;11.56;100.00
30081;BME280;16902;50.816;12.828;2023-08-07T19:41:08;97575.84;;;11.66;100.00
30081;BME280;16902;50.816;12.828;2023-08-07T19:46:11;97578.69;;;11.71;100.00
30081;BME280;16902;50.816;12.828;2023-08-07T19:51:13;97588.78;;;11.81;100.00
30081;BME280;16902;50.816;12.828;2023-08-07T19:56:17;97593.34;;;11.79;100.00
30081;BME280;16902;50.816;12.828;2023-08-07T20:01:18;97598.78;;;11.77;100.00
30081;BME280;16902;50.816;12.828;2023-08-07T20:06:20;97606.53;;;11.92;100.00
30081;BME280;16902;50.816;12.828;2023-08-07T20:11:22;97609.78;;;12.01;100.00
30081;BME280;16902;50.816;12.828;2023-08-07T20:16:23;97603.00;;;12.06;100.00
30081;BME280;16902;50.816;12.828;2023-08-07T20:21:26;97601.38;;;12.05;100.00
30081;BME280;16902;50.816;12.828;2023-08-07T20:26:28;97598.97;;;12.04;100.00
30081;BME280;16902;50.816;12.828;2023-08-07T20:31:32;97600.59;;;12.05;100.00
30081;BME280;16902;50.816;12.828;2023-08-07T20:36:33;97610.63;;;12.08;100.00
30081;BME280;16902;50.816;12.828;2023-08-07T20:41:35;97619.88;;;12.11;100.00
30081;BME280;16902;50.816;12.828;2023-08-07T20:46:37;97621.28;;;12.13;100.00
30081;BME280;16902;50.816;12.828;2023-08-07T20:51:39;97632.72;;;12.12;100.00
30081;BME280;16902;50.816;12.828;2023-08-07T20:56:40;97630.91;;;12.13;100.00
30081;BME280;16902;50.816;12.828;2023-08-07T21:01:42;97630.13;;;12.12;100.00
30081;BME280;16902;50.816;12.828;2023-08-07T21:06:48;97640.13;;;12.08;100.00
30081;BME280;16902;50.816;12.828;2023-08-07T21:11:52;97639.53;;;12.06;100.00
30081;BME280;16902;50.816;12.828;2023-08-07T21:16:54;97627.69;;;12.04;100.00
30081;BME280;16902;50.816;12.828;2023-08-07T21:21:56;97636.13;;;12.06;100.00
30081;BME280;16902;50.816;12.828;2023-08-07T21:26:58;97634.91;;;12.08;100.00
30081;BME280;16902;50.816;12.828;2023-08-07T21:31:59;97638.53;;;12.07;100.00
30081;BME280;16902;50.816;12.828;2023-08-07T21:37:02;97632.28;;;12.02;100.00
30081;BME280;16902;50.816;12.828;2023-08-07T21:42:04;97628.09;;;12.07;100.00
30081;BME280;16902;50.816;12.828;2023-08-07T21:47:06;97642.94;;;12.07;100.00
30081;BME280;16902;50.816;12.828;2023-08-07T21:52:08;97639.50;;;12.00;100.00
30081;BME280;16902;50.816;12.828;2023-08-07T21:57:10;97639.88;;;11.97;100.00
30081;BME280;16902;50.816;12.828;2023-08-07T22:02:12;97639.63;;;11.92;100.00
30081;BME280;16902;50.816;12.828;2023-08-07T22:07:14;97637.28;;;11.75;100.00
30081;BME280;16902;50.816;12.828;2023-08-07T22:12:16;97630.66;;;11.73;100.00
30081;BME280;16902;50.816;12.828;2023-08-07T22:17:17;97638.59;;;11.65;100.00
30081;BME280;16902;50.816;12.828;2023-08-07T22:22:19;97633.16;;;11.59;100.00
30081;BME280;16902;50.816;12.828;2023-08-07T22:27:21;97635.09;;;11.51;100.00
30081;BME280;16902;50.816;12.828;2023-08-07T22:32:22;97632.75;;;11.56;100.00
30081;BME280;16902;50.816;12.828;2023-08-07T22:37:24;97619.88;;;11.54;100.00
30081;BME280;16902;50.816;12.828;2023-08-07T22:42:26;97615.78;;;11.45;100.00
30081;BME280;16902;50.816;12.828;2023-08-07T22:47:28;97618.53;;;11.37;100.00
30081;BME280;16902;50.816;12.828;2023-08-07T22:52:29;97610.03;;;11.28;100.00
30081;BME280;16902;50.816;12.828;2023-08-07T22:57:31;97611.97;;;11.20;100.00
30081;BME280;16902;50.816;12.828;2023-08-07T23:02:33;97607.63;;;11.05;100.00
30081;BME280;16902;50.816;12.828;2023-08-07T23:07:36;97606.88;;;10.90;100.00
30081;BME280;16902;50.816;12.828;2023-08-07T23:12:38;97608.78;;;10.81;100.00
30081;BME280;16902;50.816;12.828;2023-08-07T23:17:40;97608.69;;;10.53;100.00
30081;BME280;16902;50.816;12.828;2023-08-07T23:22:42;97609.31;;;10.55;100.00
30081;BME280;16902;50.816;12.828;2023-08-07T23:27:44;97602.13;;;10.58;100.00
30081;BME280;16902;50.816;12.828;2023-08-07T23:32:45;97607.22;;;10.44;100.00
30081;BME280;16902;50.816;12.828;2023-08-07T23:37:47;97605.16;;;10.40;100.00
30081;BME280;16902;50.816;12.828;2023-08-07T23:42:49;97606.03;;;10.32;100.00
30081;BME280;16902;50.816;12.828;2023-08-07T23:47:51;97609.09;;;10.21;100.00
30081;BME280;16902;50.816;12.828;2023-08-07T23:52:53;97611.84;;;10.19;100.00
30081;BME280;16902;50.816;12.828;2023-08-07T23:57:55;97611.97;;;10.11;100.00
